MUCFMUCU

Guest
Details From MUCF - JAIME GONZALEZ
To MUCU - Santiago de Cuba Antonio Maceo Intl
Flight Number -
Tags generated
Created
Modified
Stats Distance 290 nm / 536 km
Max Altitude 35,000 ft / 10,668 m
Waypoints 5
Social Downloads 1
Likes 0
Share VATSIM

Download

Looking for another format? Having issues loading an existing format? Contact us
Advertisement - Login to hide

Notes

Basic altitude profile: - Ascent Rate: 2500ft/min - Ascent Speed: 250kts - Cruise Altitude: 35000ft - Cruise Speed: 420kts - Descent Rate: 1500ft/min - Descent Speed: 250kts Options: - Use NATs: yes - Use PACOTS: yes - Use low airways: yes - Use high airways: yes

Route

MUCF UCF J2 CANEY MUCU

ID Type Via Altitude Latitude Longitude Leg Dist Tot Dist Heading (true) Name
O MUCF APT - 0 ft / 0 m 22.14985˚ -80.41431˚ - 0 nm - JAIME GONZALEZ
UCF VOR - 100 ft / 30 m 22.15468˚ -80.40606˚ 0 nm 0 nm 58° / 58° CIENFUEGOS VOR-DME
JUCRO FIX J2 (AWY-LO) 35,000 ft / 10,668 m 21.15889˚ -78.59972˚ 117 nm 117 nm 120° / 121° -
CANEY FIX J2 (AWY-HI) 21,800 ft / 6,645 m 20.55389˚ -77.53306˚ 70 nm 187 nm 121° / 121° -
O MUCU APT - 0 ft / 0 m 19.97234˚ -75.83552˚ 101 nm 289 nm 110° / 110° Santiago de Cuba Antonio Maceo Intl

Altitude Profile

Advertisement - Login to hide

Weather


0- 5 10 15 20 25 30 35+ Temperature / ° C

Clouds and Precipitation
Forecast for 2017-12-12 12:00 UTC. Updated 34 minutes ago

Ground ~20,000 ft ~40,000 ft Winds

MUCF

Details ICAO MUCF (CFG)
Name JAIME GONZALEZ
Region Cuba
Timezone America/Havana (UTC-5.0)
Stats Elevation 102 ft / 31 m (AMSL)
Location 22.149850° -80.414310°
Runways 1
Magnetic Variation 6.009° W

METAR

MUCF 120858Z AUTO 02004KT 13/13 Q1018

Decode

TAF

Not found

Departure Runways

ID Width Length Bearing (true) Bearing (mag) Surface Threshold Offset Overrun Length
02 148 ft / 45 m 7,908 ft / 2,410 m 15.87° 21.88° Asphalt 0 ft / 0 m 120 ft / 37 m
20 148 ft / 45 m 7,908 ft / 2,410 m 195.87° 201.88° Asphalt 0 ft / 0 m 0 ft / 0 m

MUCU

Details ICAO MUCU (SCU)
Name Santiago de Cuba Antonio Maceo Intl
Region Cuba
Timezone America/Havana (UTC-5.0)
Stats Elevation 249 ft / 76 m (AMSL)
Location 19.972337° -75.835517°
Runways 2
Magnetic Variation 8.401° W

METAR

MUCU 120851Z 36008KT 330V030 9000 FEW020 SCT070 22/19 Q1013

Decode

TAF

Not found

Destination Runways

ID Width Length Bearing (true) Bearing (mag) Surface Threshold Offset Overrun Length
09 148 ft / 45 m 13,107 ft / 3,995 m 89.29° 97.69° Asphalt 985 ft / 300 m 0 ft / 0 m
18 148 ft / 45 m 4,272 ft / 1,302 m 179.40° 187.80° Asphalt 0 ft / 0 m 0 ft / 0 m
27 148 ft / 45 m 13,107 ft / 3,995 m 269.30° 277.70° Asphalt 980 ft / 299 m 340 ft / 104 m
36 148 ft / 45 m 4,272 ft / 1,302 m 359.40° 7.80° Asphalt 0 ft / 0 m 0 ft / 0 m

Approach Navaids

Runway Type Ident Frequency Range Bearing (true) Bearing (mag) Slope Elevation
09 Localiser ICU 110.70 MHz 18 nm / 33 km 85.21° 93.61° - 249 ft / 76 m (AMSL)
09 Glidescope ICU 110.70 MHz 10 nm / 19 km 89.30° 97.70° 3.00° 249 ft / 76 m (AMSL)